Stations météo

Publicité
Embrun, France (7591): Température de l'air & dewpoint: 17.04.2017 23:00:00 - 23.04.2017 23:00:00 (CEST)Embrun, France (7591): Température de l'air 5cm: 17.04.2017 23:00:00 - 23.04.2017 23:00:00 (CEST)Embrun, France (7591): Température de l'air -20cm & Température de l'air -100cm: 17.04.2017 23:00:00 - 23.04.2017 23:00:00 (CEST)Embrun, France (7591): Vitesse du vent & gusts: 17.04.2017 23:00:00 - 23.04.2017 23:00:00 (CEST)Embrun, France (7591): Direction du vent: 17.04.2017 23:00:00 - 23.04.2017 23:00:00 (CEST)Embrun, France (7591): visibility: 17.04.2017 23:00:00 - 23.04.2017 23:00:00 (CEST)Embrun, France (7591): Ensoleillement: 17.04.2017 23:00:00 - 23.04.2017 23:00:00 (CEST)Embrun, France (7591): Quantités de précipitations: 17.04.2017 23:00:00 - 23.04.2017 23:00:00 (CEST)
Date & Time tt [°C] td [°C] tt 5cm [°C] tt -20cm [°C] tt -100cm [°C] ff [km/h] ff [knt] fx [km/h] fx [knt] dd vv [km] sd [min] rr [mm]
23.04.2017 23:00:00 13,4 2,9 11,4 12,7 11,1 5 3 18 10 SW 20 0 0,0
23.04.2017 22:00:00 14,2 2,7 12,7 12,6 11,1 9 5 25 14 S 20 0 0,0
23.04.2017 21:00:00 16,4 2,8 15,4 12,5 11,1 16 9 32 17 SSW 20 0 0,0
23.04.2017 20:00:00 18,6 0,7 17,3 12,4 11,1 15 8 34 18 SW 20 28 0,0
23.04.2017 19:00:00 21,2 -1,4 21,5 12,3 11,1 16 9 38 20 WSW 18 60 0,0
23.04.2017 18:00:00 22,0 -0,7 24,7 12,1 11,1 19 10 39 21 WSW 20 60 0,0
23.04.2017 17:00:00 22,6 0,4 27,4 12,0 11,1 17 9 38 21 WSW 20 60 0,0
23.04.2017 16:00:00 21,9 -0,8 27,4 11,9 11,1 23 12 40 22 SSW 20 60 0,0
23.04.2017 15:00:00 21,4 -1,2 27,5 11,8 11,1 22 12 37 20 SSW 20 60 0,0
23.04.2017 14:00:00 20,3 -1,0 27,1 11,7 11,1 17 9 29 16 SSW 20 60 0,0
23.04.2017 13:00:00 18,8 -1,7 25,4 11,7 11,1 16 9 31 17 SSW 20 60 0,0
23.04.2017 12:00:00 16,4 -1,2 22,6 11,7 11,1 11 6 22 12 SSW 20 60 0,0
23.04.2017 11:00:00 14,0 -2,0 19,4 11,8 11,1 8 4 14 7 S 20 60 0,0
23.04.2017 10:00:00 11,3 -1,8 13,2 11,9 11,1 5 3 10 5 S 20 60 0,0
23.04.2017 09:00:00 8,0 -2,6 1,6 12,0 11,1 4 2 8 4 SSE 20 57 0,0
23.04.2017 08:00:00 3,5 -3,5 0,7 12,1 11,1 0 0 9 5 N 20 0 0,0
23.04.2017 07:00:00 3,0 -3,4 -1,1 12,2 11,1 7 4 9 5 ENE 20 0 0,0
23.04.2017 06:00:00 3,7 -3,6 0,4 12,2 11,1 0 0 16 9 N 20 0 0,0
23.04.2017 05:00:00 4,4 -3,4 0,8 12,3 11,1 10 5 13 7 NNE 20 0 0,0
23.04.2017 04:00:00 5,2 -2,6 1,8 12,3 11,1 4 2 14 7 N 20 0 0,0
23.04.2017 03:00:00 6,0 -2,6 1,9 12,4 11,1 4 2 7 4 N 20 0 0,0
23.04.2017 02:00:00 6,4 -2,8 2,3 12,4 11,1 4 2 8 4 N 20 0 0,0
23.04.2017 01:00:00 7,6 -2,4 3,3 12,4 11,1 3 2 7 4 N 20 0 0,0
23.04.2017 00:00:00 9,0 -2,9 4,8 12,4 11,1 4 2 10 6 NNW 20 0 0,0
22.04.2017 23:00:00 10,3 -2,7 6,5 12,3 11,1 6 4 11 6 N 20 0 0,0
22.04.2017 22:00:00 12,7 -3,6 8,6 12,2 11,1 3 2 22 12 ESE 20 0 0,0
22.04.2017 21:00:00 15,1 -3,8 13,4 12,1 11,1 9 5 40 21 S 20 0 0,0
22.04.2017 20:00:00 17,2 -4,7 16,4 12,0 11,1 22 12 45 24 SSW 20 27 0,0
22.04.2017 19:00:00 19,0 -5,2 19,3 11,8 11,1 24 13 41 22 SSW 20 60 0,0
22.04.2017 18:00:00 20,8 -3,0 23,4 11,7 11,1 21 11 44 24 SSW 20 60 0,0
22.04.2017 17:00:00 20,8 -3,7 25,1 11,6 11,1 21 11 40 22 SW 20 60 0,0
22.04.2017 16:00:00 20,6 -1,9 25,8 11,5 11,1 22 12 42 23 SSW 20 60 0,0
22.04.2017 15:00:00 20,5 -2,0 26,3 11,4 11,1 19 10 35 19 SW 20 60 0,0
22.04.2017 14:00:00 18,9 -2,1 25,6 11,3 11,1 16 9 28 15 SSW 20 60 0,0
22.04.2017 13:00:00 17,9 -2,4 24,3 11,3 11,1 11 6 27 15 S 20 60 0,0
22.04.2017 12:00:00 15,6 -4,4 23,1 11,4 11,1 8 5 16 9 SSW 20 60 0,0
22.04.2017 11:00:00 13,2 -2,7 18,9 11,5 11,1 5 3 12 7 S 20 60 0,0
22.04.2017 10:00:00 11,2 -3,0 14,3 11,5 11,1 5 3 17 9 E 18 60 0,0
22.04.2017 09:00:00 7,6 -3,9 0,9 11,6 11,1 6 3 10 6 NE 20 56 0,0
22.04.2017 08:00:00 2,2 -4,8 0,1 11,7 11,1 4 2 8 4 NE 20 0 0,0
22.04.2017 07:00:00 2,7 -5,2 0,2 11,7 11,1 3 2 21 11 NE 20 0 0,0
22.04.2017 06:00:00 3,8 -5,4 1,5 11,8 11,1 10 6 19 11 NNE 20 0 0,0
22.04.2017 05:00:00 5,0 -5,4 2,6 11,8 11,1 11 6 27 14 NNE 20 0 0,0
22.04.2017 04:00:00 5,6 -5,4 2,2 11,9 11,1 19 10 32 17 NNE 20 0 0,0
22.04.2017 03:00:00 4,9 -5,2 1,0 11,9 11,1 10 5 14 8 NNE 20 0 0,0
22.04.2017 02:00:00 4,5 -4,8 1,0 12,0 11,1 3 1 11 6 N 20 0 0,0
22.04.2017 01:00:00 5,4 -4,7 1,2 12,0 11,1 3 2 7 4 N 20 0 0,0
22.04.2017 00:00:00 6,4 -4,7 2,5 11,9 11,1 4 2 8 4 N 20 0 0,0
21.04.2017 23:00:00 7,8 -5,0 3,3 11,9 11,1 4 2 10 6 NNW 20 0 0,0
21.04.2017 22:00:00 10,4 -5,2 7,8 11,9 11,1 5 3 20 11 SSW 20 0 0,0
21.04.2017 21:00:00 12,2 -5,8 11,0 11,8 11,1 13 7 32 18 SSW 20 0 0,0
21.04.2017 20:00:00 14,1 -7,3 13,1 11,7 11,1 12 7 28 15 SW 20 26 0,0
21.04.2017 19:00:00 16,0 -7,7 16,3 11,6 11,1 16 8 34 19 SSW 20 60 0,0
21.04.2017 18:00:00 16,5 -7,9 19,3 11,4 11,1 19 10 34 18 SSW 20 60 0,0
21.04.2017 17:00:00 16,6 -8,6 21,5 11,3 11,1 18 10 36 20 SSW 20 60 0,0
21.04.2017 16:00:00 16,8 -8,4 21,7 11,2 11,1 20 11 35 19 SW 20 60 0,0
21.04.2017 15:00:00 16,2 -8,2 22,5 11,1 11,1 15 8 30 16 SW 20 60 0,0
21.04.2017 14:00:00 15,3 -8,2 21,9 11,1 11,1 17 9 34 19 SSW 20 60 0,0
21.04.2017 13:00:00 14,0 -9,3 20,4 11,1 11,1 16 8 29 15 SSW 20 60 0,0
21.04.2017 12:00:00 12,8 -10,3 19,4 11,2 11,1 16 9 26 14 SSW 20 60 0,0
21.04.2017 11:00:00 10,9 -10,6 17,3 11,3 11,1 6 4 15 8 SSE 20 60 0,0
21.04.2017 10:00:00 8,6 -8,9 10,7 11,4 11,1 10 5 28 15 ENE 20 60 0,0
21.04.2017 09:00:00 4,7 -8,4 -1,5 11,5 11,1 13 7 26 14 ENE 20 55 0,0
21.04.2017 08:00:00 -0,5 -8,0 -3,7 11,6 11,1 7 4 15 8 E 20 0 0,0
21.04.2017 07:00:00 -1,1 -7,7 -4,5 11,6 11,1 3 2 9 5 N 20 0 0,0
21.04.2017 06:00:00 -0,7 -7,5 -4,6 11,7 11,1 5 3 8 4 NNE 20 0 0,0
21.04.2017 05:00:00 -0,8 -7,2 -3,7 11,8 11,1 0 0 15 8 N 20 0 0,0
21.04.2017 04:00:00 1,2 -7,8 -3,5 11,9 11,1 7 4 12 7 NNE 20 0 0,0
21.04.2017 03:00:00 1,0 -7,5 -3,1 12,0 11,1 3 1 9 5 NNE 20 0 0,0
21.04.2017 02:00:00 0,9 -7,1 -3,0 12,0 11,1 3 2 6 3 NNE 20 0 0,0
21.04.2017 01:00:00 1,7 -6,6 -1,9 12,0 11,1 2 1 6 3 NNW 20 0 0,0
21.04.2017 00:00:00 2,4 -7,0 -1,6 12,0 11,1 2 1 6 3 N 20 0 0,0
20.04.2017 23:00:00 3,8 -7,1 -0,2 12,0 11,1 3 2 9 5 N 20 0 0,0
20.04.2017 22:00:00 5,3 -6,6 1,4 11,9 11,1 5 3 13 7 N 20 0 0,0
20.04.2017 21:00:00 7,5 -7,4 6,0 11,9 11,1 8 4 21 12 S 20 0 0,0
20.04.2017 20:00:00 9,8 -7,0 8,9 11,8 11,1 11 6 32 17 SW 20 26 0,0
20.04.2017 19:00:00 12,2 -10,1 12,7 11,7 11,1 16 9 34 18 SW 20 60 0,0
20.04.2017 18:00:00 13,1 -11,5 16,1 11,5 11,1 19 11 35 19 SW 20 60 0,0
20.04.2017 17:00:00 13,8 -10,9 18,9 11,5 11,1 20 11 36 20 SW 20 60 0,0
20.04.2017 16:00:00 13,4 -12,8 19,7 11,4 11,1 19 11 34 18 SSW 20 60 0,0
20.04.2017 15:00:00 12,9 -12,4 19,5 11,3 11,1 19 10 35 19 SSW 20 60 0,0
20.04.2017 14:00:00 12,5 -12,7 19,6 11,3 11,1 16 9 29 16 SSW 19 60 0,0
20.04.2017 13:00:00 10,9 -13,3 18,4 11,3 11,1 15 8 26 14 SSW 20 60 0,0
20.04.2017 12:00:00 9,7 -12,9 16,9 11,3 11,1 10 5 21 12 SSW 20 60 0,0
20.04.2017 11:00:00 8,2 -13,5 14,8 11,4 11,1 4 2 16 9 SE 20 60 0,0
20.04.2017 10:00:00 6,1 -12,5 8,3 11,5 11,1 11 6 22 12 NE 20 60 0,0
20.04.2017 09:00:00 3,5 -12,1 -0,4 11,6 11,1 16 9 27 15 NNE 20 53 0,0
20.04.2017 08:00:00 0,4 -11,7 -1,2 11,6 11,1 16 9 24 13 N 20 0 0,0
20.04.2017 07:00:00 0,2 -10,9 -2,4 11,8 11,1 13 7 20 11 NNE 20 0 0,0
20.04.2017 06:00:00 0,3 -10,3 -1,7 11,8 11,1 8 5 31 17 ENE 20 0 0,0
20.04.2017 05:00:00 1,9 -10,3 0,5 11,9 11,1 18 10 35 19 N 20 0 0,0
20.04.2017 04:00:00 2,4 -9,5 1,2 12,0 11,1 23 12 33 18 N 20 0 0,0
20.04.2017 03:00:00 2,8 -9,2 0,8 12,0 11,1 19 10 29 16 N 20 0 0,0
20.04.2017 02:00:00 2,8 -8,6 1,2 12,1 11,1 17 9 34 18 N 20 0 0,0
20.04.2017 01:00:00 3,2 -7,6 1,6 12,1 11,1 17 9 29 16 N 20 0 0,0
20.04.2017 00:00:00 3,8 -7,4 2,2 12,1 11,1 15 8 49 26 NNE 20 0 0,0
19.04.2017 23:00:00 4,9 -9,3 4,0 12,1 11,1 20 11 44 24 NNE 20 0 0,0
19.04.2017 22:00:00 5,9 -12,2 4,4 12,1 11,1 22 12 46 25 NNE 20 0 0,0
19.04.2017 21:00:00 5,9 -13,2 4,5 12,0 11,1 20 11 49 26 NE 20 0 0,0
19.04.2017 20:00:00 6,9 -14,0 5,7 12,0 11,1 50 27 104 56 NE 20 11 0,0
19.04.2017 19:00:00 8,8 -15,7 9,4 11,9 11,1 30 16 56 30 NNE 20 60 0,0
19.04.2017 18:00:00 10,3 -17,0 12,0 11,8 11,1 27 15 53 29 NNE 20 58 0,0
19.04.2017 17:00:00 10,7 -18,7 15,4 11,7 11,1 29 16 55 30 NNE 20 60 0,0
19.04.2017 16:00:00 10,9 -19,6 12,6 11,6 11,1 26 14 46 25 NNE 20 46 0,0
19.04.2017 15:00:00 11,9 -15,7 18,4 11,6 11,1 18 10 34 18 SSW 20 60 0,0
19.04.2017 14:00:00 11,4 -16,1 18,8 11,6 11,1 19 10 34 19 SSW 20 60 0,0
19.04.2017 13:00:00 10,5 -17,8 18,1 11,6 11,0 19 10 35 19 SW 20 60 0,0
19.04.2017 12:00:00 9,7 -16,6 16,8 11,6 11,0 14 8 26 14 SW 20 60 0,0
19.04.2017 11:00:00 8,3 -14,0 14,2 11,7 11,1 8 5 22 12 SW 20 60 0,0
19.04.2017 10:00:00 6,6 -14,2 9,2 11,8 11,1 6 3 21 12 SSE 20 60 0,0
19.04.2017 09:00:00 3,7 -13,2 -1,6 11,9 11,1 14 7 24 13 NE 20 53 0,0
19.04.2017 08:00:00 0,4 -13,3 -1,2 12,0 11,1 8 4 28 15 NNE 20 0 0,0
19.04.2017 07:00:00 1,0 -14,3 -1,8 12,1 11,0 16 8 26 14 N 20 0 0,0
19.04.2017 06:00:00 0,5 -13,2 -2,0 12,2 11,0 10 6 26 14 NE 20 0 0,0
19.04.2017 05:00:00 2,4 -14,3 0,5 12,2 11,0 16 9 34 18 N 20 0 0,0
19.04.2017 04:00:00 3,0 -14,2 1,6 12,4 11,1 22 12 36 19 N 20 0 0,0
19.04.2017 03:00:00 3,6 -14,2 1,8 12,4 11,1 18 10 38 20 N 20 0 0,0
19.04.2017 02:00:00 4,3 -14,5 2,7 12,5 11,0 21 11 35 19 N 20 0 0,0
19.04.2017 01:00:00 5,2 -14,8 3,9 12,5 11,0 25 13 44 24 NNE 20 0 0,0
19.04.2017 00:00:00 5,7 -15,0 4,4 12,5 11,0 25 14 45 25 NNE 20 0 0,0
18.04.2017 23:00:00 6,0 -15,9 4,6 12,5 11,0 22 12 46 25 NNE 20 0 0,0
18.04.2017 22:00:00 6,7 -14,7 5,5 12,5 11,1 29 16 65 35 NE 20 0 0,0
18.04.2017 21:00:00 7,7 -14,5 6,6 12,4 11,0 34 18 70 38 NNE 20 0 0,0
18.04.2017 20:00:00 9,0 -14,8 8,2 12,4 11,0 41 22 74 40 NNE 20 25 0,0
18.04.2017 19:00:00 11,0 -15,5 11,1 12,2 11,0 49 26 79 42 NNE 20 60 0,0
18.04.2017 18:00:00 13,0 -14,8 15,1 12,1 11,0 41 22 76 41 NNE 20 60 0,0
18.04.2017 17:00:00 14,3 -13,8 18,7 12,0 11,0 30 16 55 30 NNE 20 60 0,0
18.04.2017 16:00:00 15,3 -7,6 21,2 12,0 11,0 20 11 37 20 SSW 20 60 0,0
18.04.2017 15:00:00 15,7 -6,0 21,4 11,9 11,0 16 9 37 20 SW 20 60 0,0
18.04.2017 14:00:00 14,8 -4,0 21,2 11,9 11,0 19 10 38 21 SW 20 60 0,0
18.04.2017 13:00:00 13,8 -3,5 20,1 11,9 11,0 24 13 42 23 SSW 20 60 0,0
18.04.2017 12:00:00 13,4 -3,0 19,7 11,9 11,0 19 10 31 17 SSW 19 60 0,0
18.04.2017 11:00:00 11,4 -0,4 16,8 12,0 11,0 9 5 19 10 S 20 60 0,0
18.04.2017 10:00:00 9,2 -0,2 11,6 12,1 11,0 6 3 12 6 SSE 20 60 0,0
18.04.2017 09:00:00 5,5 0,3 0,4 12,2 11,0 6 3 16 9 ENE 20 52 0,0
18.04.2017 08:00:00 1,8 -1,5 -0,3 12,3 11,0 3 2 10 5 N 19 0 0,0
18.04.2017 07:00:00 1,7 -1,6 -1,5 12,4 11,0 7 4 10 6 NNE 20 0 0,0
18.04.2017 06:00:00 2,1 -1,2 -1,6 12,5 11,0 3 2 7 4 N 20 0 0,0
18.04.2017 05:00:00 2,7 -1,1 -0,5 12,5 11,0 0 0 8 4 N 20 0 0,0
18.04.2017 04:00:00 3,2 -0,8 -0,4 12,6 11,0 3 1 5 3 N 20 0 0,0
18.04.2017 03:00:00 4,0 -1,0 0,5 12,7 11,0 0 0 8 4 N 20 0 0,0
18.04.2017 02:00:00 4,5 -1,1 1,4 12,7 11,0 0 0 9 5 N 20 0 0,0
18.04.2017 01:00:00 5,5 -0,8 1,5 12,7 11,0 2 1 5 3 NNW 20 0 0,0
18.04.2017 00:00:00 6,6 -0,4 2,6 12,7 11,0 4 2 6 4 NNW 20 0 0,0
17.04.2017 23:00:00 8,7 -0,4 4,7 12,7 11,0 4 2 14 8 SW 20 0 0,0

tt = Température de l'air
td = dewpoint
tt 5cm = Température de l'air 5cm
tt -20cm = Température de l'air -20cm
tt -100cm = Température de l'air -100cm
ff = Vitesse du vent
fx = gusts
dd = Direction du vent
vv = visibility
sd = Ensoleillement
rr = Quantités de précipitations

stations d'obs. à proximité